VLVT

Wattay International Airport

Airport
ICAO code
VLVT
IATA Code
VTE
Summary
ICAO Region
APAC
ICAO Territory
Location

Vientiane, Vientiane

Serving
Vientiane
Elevation
564 ft
Coordinates
17° 59' 17" N , 102° 33' 47" E
KCC
Metar
VLVT 040830Z 22006KT 8000 FEW020 FEW200 36/29 Q1006 NOSIG

International airport serving the capital of Laos, Vientiane.

Climatology

Tropical savannah climate (Köppen climate classification Aw)

Airport map

Aerial View

SKYbrary Partners:

Safety knowledge contributed by: